sensor_id;sensor_type;location;lat;lon;timestamp;pressure;altitude;pressure_sealevel;temperature;humidity
76044;BME280;64740;34.694;33.088;2023-03-31T00:01:20;1042.3;;;14.9;33.7
76044;BME280;64740;34.694;33.088;2023-03-31T00:06:38;1042.2;;;15;33.4
76044;BME280;64740;34.694;33.088;2023-03-31T00:11:14;1042.2;;;15;33.5
76044;BME280;64740;34.694;33.088;2023-03-31T00:16:26;1042.2;;;15.1;33.4
76044;BME280;64740;34.694;33.088;2023-03-31T00:20:58;1042.2;;;15.1;33.6
76044;BME280;64740;34.694;33.088;2023-03-31T00:26:20;1042.2;;;15.2;33.9
76044;BME280;64740;34.694;33.088;2023-03-31T00:31:36;1042.2;;;15.1;33.3
76044;BME280;64740;34.694;33.088;2023-03-31T00:36:20;1042.2;;;15;33.1
76044;BME280;64740;34.694;33.088;2023-03-31T00:41:36;1042.2;;;14.8;33
76044;BME280;64740;34.694;33.088;2023-03-31T00:46:09;1042.2;;;14.7;33
76044;BME280;64740;34.694;33.088;2023-03-31T00:50:56;1042.2;;;14.7;33.5
76044;BME280;64740;34.694;33.088;2023-03-31T00:56:36;1042.2;;;14.7;33.6
76044;BME280;64740;34.694;33.088;2023-03-31T01:01:20;1042.3;;;14.6;33.6
76044;BME280;64740;34.694;33.088;2023-03-31T01:06:26;1042.2;;;14.7;33.7
76044;BME280;64740;34.694;33.088;2023-03-31T01:10:56;1042.3;;;14.7;33.2
76044;BME280;64740;34.694;33.088;2023-03-31T01:15:56;1042.2;;;14.6;33.6
76044;BME280;64740;34.694;33.088;2023-03-31T01:26:39;1042.1;;;14.4;33.6
76044;BME280;64740;34.694;33.088;2023-03-31T01:31:34;1042.1;;;14.4;33.4
76044;BME280;64740;34.694;33.088;2023-03-31T01:35:57;1042.1;;;14.3;33.9
76044;BME280;64740;34.694;33.088;2023-03-31T01:41:14;1042.1;;;14.4;34.1
76044;BME280;64740;34.694;33.088;2023-03-31T01:46:24;1042.1;;;14.4;34.4
76044;BME280;64740;34.694;33.088;2023-03-31T01:51:21;1042.1;;;14.4;33.9
76044;BME280;64740;34.694;33.088;2023-03-31T01:56:27;1042.1;;;14.4;34
76044;BME280;64740;34.694;33.088;2023-03-31T02:01:08;1042.1;;;14.3;34.2
76044;BME280;64740;34.694;33.088;2023-03-31T02:05:56;1042.1;;;14.4;34
76044;BME280;64740;34.694;33.088;2023-03-31T02:11:24;1042.1;;;14.4;33.7
76044;BME280;64740;34.694;33.088;2023-03-31T02:16:21;1042.1;;;14.4;34.5
76044;BME280;64740;34.694;33.088;2023-03-31T02:21:28;1042.2;;;14.3;34.5
76044;BME280;64740;34.694;33.088;2023-03-31T02:26:07;1042.2;;;14.3;34.1
76044;BME280;64740;34.694;33.088;2023-03-31T02:31:22;1042.2;;;14.2;34.4
76044;BME280;64740;34.694;33.088;2023-03-31T02:36:38;1042.2;;;14.2;34.6
76044;BME280;64740;34.694;33.088;2023-03-31T02:41:20;1042.2;;;14.2;34.6
76044;BME280;64740;34.694;33.088;2023-03-31T02:46:26;1042.2;;;14.2;34.6
76044;BME280;64740;34.694;33.088;2023-03-31T02:51:00;1042.3;;;14;34.8
76044;BME280;64740;34.694;33.088;2023-03-31T02:56:24;1042.3;;;14;35.3
76044;BME280;64740;34.694;33.088;2023-03-31T03:01:40;1042.3;;;14.1;34.5
76044;BME280;64740;34.694;33.088;2023-03-31T03:05:58;1042.3;;;14;34.4
76044;BME280;64740;34.694;33.088;2023-03-31T03:10:57;1042.4;;;13.8;34.6
76044;BME280;64740;34.694;33.088;2023-03-31T03:15:57;1042.4;;;13.7;35
76044;BME280;64740;34.694;33.088;2023-03-31T03:21:18;1042.4;;;13.8;35.5
76044;BME280;64740;34.694;33.088;2023-03-31T03:26:34;1042.5;;;13.9;35.2
76044;BME280;64740;34.694;33.088;2023-03-31T03:31:18;1042.5;;;13.9;35.5
76044;BME280;64740;34.694;33.088;2023-03-31T03:36:26;1042.6;;;14;35.1
76044;BME280;64740;34.694;33.088;2023-03-31T03:40:56;1042.7;;;14;35.1
76044;BME280;64740;34.694;33.088;2023-03-31T03:46:10;1042.7;;;14;34.9
76044;BME280;64740;34.694;33.088;2023-03-31T03:51:22;1042.7;;;14;34.9
76044;BME280;64740;34.694;33.088;2023-03-31T03:56:20;1042.8;;;14;34.9
76044;BME280;64740;34.694;33.088;2023-03-31T04:01:28;1042.7;;;14;35.1
76044;BME280;64740;34.694;33.088;2023-03-31T04:05:56;1042.7;;;14;35.4
76044;BME280;64740;34.694;33.088;2023-03-31T04:10:56;1042.8;;;14;35.1
76044;BME280;64740;34.694;33.088;2023-03-31T04:16:36;1042.8;;;14;35.2
76044;BME280;64740;34.694;33.088;2023-03-31T04:21:06;1042.8;;;14;35.3
76044;BME280;64740;34.694;33.088;2023-03-31T04:26:27;1042.8;;;14;35.2
76044;BME280;64740;34.694;33.088;2023-03-31T04:31:14;1042.8;;;14.1;35.5
76044;BME280;64740;34.694;33.088;2023-03-31T04:36:10;1042.8;;;14.3;35.4
76044;BME280;64740;34.694;33.088;2023-03-31T04:41:36;1042.8;;;14.4;35
76044;BME280;64740;34.694;33.088;2023-03-31T04:46:28;1042.7;;;14.6;35
76044;BME280;64740;34.694;33.088;2023-03-31T04:51:26;1042.7;;;14.7;34.8
76044;BME280;64740;34.694;33.088;2023-03-31T04:56:14;1042.8;;;14.8;34.8
76044;BME280;64740;34.694;33.088;2023-03-31T05:01:20;1042.8;;;14.9;34.7
76044;BME280;64740;34.694;33.088;2023-03-31T05:06:36;1042.9;;;15.1;34.5
76044;BME280;64740;34.694;33.088;2023-03-31T05:11:20;1042.9;;;15.2;34.4
76044;BME280;64740;34.694;33.088;2023-03-31T05:16:26;1042.8;;;15.3;34.1
76044;BME280;64740;34.694;33.088;2023-03-31T05:21:08;1042.8;;;15.5;34.1
76044;BME280;64740;34.694;33.088;2023-03-31T05:25:56;1042.9;;;15.7;34.3
76044;BME280;64740;34.694;33.088;2023-03-31T05:31:36;1042.9;;;15.8;33.8
76044;BME280;64740;34.694;33.088;2023-03-31T05:36:20;1042.9;;;16;33.2
76044;BME280;64740;34.694;33.088;2023-03-31T05:41:26;1042.9;;;16.1;33
76044;BME280;64740;34.694;33.088;2023-03-31T05:46:14;1042.9;;;16.3;32.7
76044;BME280;64740;34.694;33.088;2023-03-31T05:51:38;1042.9;;;16.4;32.5
76044;BME280;64740;34.694;33.088;2023-03-31T05:56:38;1042.9;;;16.7;32.2
76044;BME280;64740;34.694;33.088;2023-03-31T06:01:20;1042.9;;;16.8;32
76044;BME280;64740;34.694;33.088;2023-03-31T06:06:28;1042.9;;;16.9;31.4
76044;BME280;64740;34.694;33.088;2023-03-31T06:11:04;1043;;;17.1;31.8
76044;BME280;64740;34.694;33.088;2023-03-31T06:16:20;1043;;;17.2;31.3
76044;BME280;64740;34.694;33.088;2023-03-31T06:21:36;1043;;;17.2;31.7
76044;BME280;64740;34.694;33.088;2023-03-31T06:25:58;1043;;;17.3;32.2
76044;BME280;64740;34.694;33.088;2023-03-31T06:31:26;1042.9;;;17.4;31.8
76044;BME280;64740;34.694;33.088;2023-03-31T06:36:06;1043;;;17.5;31.5
76044;BME280;64740;34.694;33.088;2023-03-31T06:41:20;1043;;;17.4;31.7
76044;BME280;64740;34.694;33.088;2023-03-31T06:46:34;1042.9;;;17.5;32
76044;BME280;64740;34.694;33.088;2023-03-31T06:51:12;1043;;;17.5;32.5
76044;BME280;64740;34.694;33.088;2023-03-31T06:56:26;1042.9;;;17.6;33
76044;BME280;64740;34.694;33.088;2023-03-31T07:00:56;1042.9;;;17.6;33
76044;BME280;64740;34.694;33.088;2023-03-31T07:06:28;1042.8;;;17.6;32.8
76044;BME280;64740;34.694;33.088;2023-03-31T07:11:38;1042.8;;;17.6;33.5
76044;BME280;64740;34.694;33.088;2023-03-31T07:16:20;1042.9;;;17.6;33.3
76044;BME280;64740;34.694;33.088;2023-03-31T07:21:12;1042.9;;;17.7;33.8
76044;BME280;64740;34.694;33.088;2023-03-31T07:26:04;1042.9;;;17.8;33.8
76044;BME280;64740;34.694;33.088;2023-03-31T07:30:56;1043;;;17.9;33.8
76044;BME280;64740;34.694;33.088;2023-03-31T07:36:38;1043;;;18;34
76044;BME280;64740;34.694;33.088;2023-03-31T07:41:10;1043;;;18.1;33.9
76044;BME280;64740;34.694;33.088;2023-03-31T07:46:28;1042.9;;;18.1;34.2
76044;BME280;64740;34.694;33.088;2023-03-31T07:51:06;1042.9;;;18.2;33.9
76044;BME280;64740;34.694;33.088;2023-03-31T07:56:28;1042.9;;;18.3;34
76044;BME280;64740;34.694;33.088;2023-03-31T08:01:36;1042.9;;;18.3;34
76044;BME280;64740;34.694;33.088;2023-03-31T08:06:28;1042.8;;;18.3;34.3
76044;BME280;64740;34.694;33.088;2023-03-31T08:11:38;1042.8;;;18.2;34.2
76044;BME280;64740;34.694;33.088;2023-03-31T08:15:56;1042.8;;;18.2;34.9
76044;BME280;64740;34.694;33.088;2023-03-31T08:21:20;1042.7;;;18.1;34.8
76044;BME280;64740;34.694;33.088;2023-03-31T08:26:39;1042.7;;;18.1;34.9
76044;BME280;64740;34.694;33.088;2023-03-31T08:31:20;1042.7;;;18;35.3
76044;BME280;64740;34.694;33.088;2023-03-31T08:36:28;1042.6;;;18;35.6
76044;BME280;64740;34.694;33.088;2023-03-31T08:41:07;1042.6;;;18.1;35.5
76044;BME280;64740;34.694;33.088;2023-03-31T08:46:20;1042.5;;;18.1;35.9
76044;BME280;64740;34.694;33.088;2023-03-31T08:51:37;1042.4;;;18.1;36.4
76044;BME280;64740;34.694;33.088;2023-03-31T08:55:56;1042.4;;;18.2;36.5
76044;BME280;64740;34.694;33.088;2023-03-31T09:01:29;1042.4;;;18.4;36.4
76044;BME280;64740;34.694;33.088;2023-03-31T09:06:15;1042.3;;;18.6;35.9
76044;BME280;64740;34.694;33.088;2023-03-31T09:11:23;1042.3;;;18.8;35.5
76044;BME280;64740;34.694;33.088;2023-03-31T09:16:39;1042.2;;;18.9;35.3
76044;BME280;64740;34.694;33.088;2023-03-31T09:21:21;1042.2;;;18.9;35.4
76044;BME280;64740;34.694;33.088;2023-03-31T09:26:28;1042.1;;;19.1;35
76044;BME280;64740;34.694;33.088;2023-03-31T09:31:16;1042;;;19.2;34.8
76044;BME280;64740;34.694;33.088;2023-03-31T09:36:15;1042;;;19.3;34.9
76044;BME280;64740;34.694;33.088;2023-03-31T09:41:38;1041.9;;;19.1;35
76044;BME280;64740;34.694;33.088;2023-03-31T09:46:18;1041.8;;;18.9;34.9
76044;BME280;64740;34.694;33.088;2023-03-31T09:50:56;1041.6;;;19.1;35.5
76044;BME280;64740;34.694;33.088;2023-03-31T09:56:05;1041.5;;;19.3;35
76044;BME280;64740;34.694;33.088;2023-03-31T10:01:26;1041.3;;;19.5;33.7
76044;BME280;64740;34.694;33.088;2023-03-31T10:06:38;1041.2;;;19.6;31.4
76044;BME280;64740;34.694;33.088;2023-03-31T10:11:07;1041.2;;;19.7;31.6
76044;BME280;64740;34.694;33.088;2023-03-31T10:16:21;1041.1;;;19.8;30.4
76044;BME280;64740;34.694;33.088;2023-03-31T10:21:06;1041;;;19.9;28.8
76044;BME280;64740;34.694;33.088;2023-03-31T10:26:26;1040.9;;;20.1;29.5
76044;BME280;64740;34.694;33.088;2023-03-31T10:31:38;1040.8;;;20.3;28.8
76044;BME280;64740;34.694;33.088;2023-03-31T10:36:20;1040.7;;;20.5;28
76044;BME280;64740;34.694;33.088;2023-03-31T10:41:26;1040.6;;;20.8;27.5
76044;BME280;64740;34.694;33.088;2023-03-31T10:45:56;1040.5;;;21.1;27.3
76044;BME280;64740;34.694;33.088;2023-03-31T10:51:36;1040.5;;;21.4;26.9
76044;BME280;64740;34.694;33.088;2023-03-31T10:56:28;1040.5;;;21.8;26.1
76044;BME280;64740;34.694;33.088;2023-03-31T11:01:23;1040.4;;;22.2;25.4
76044;BME280;64740;34.694;33.088;2023-03-31T11:06:19;1040.4;;;22.6;25.4
76044;BME280;64740;34.694;33.088;2023-03-31T11:11:17;1040.3;;;22.7;24.5
76044;BME280;64740;34.694;33.088;2023-03-31T11:16:27;1040.3;;;22.9;24.6
76044;BME280;64740;34.694;33.088;2023-03-31T11:21:39;1040.4;;;23.1;25.1
76044;BME280;64740;34.694;33.088;2023-03-31T11:26:10;1040.2;;;23.2;25.5
76044;BME280;64740;34.694;33.088;2023-03-31T11:31:29;1040.3;;;23.2;25.2
76044;BME280;64740;34.694;33.088;2023-03-31T11:36:00;1040.3;;;23.3;25.4
76044;BME280;64740;34.694;33.088;2023-03-31T11:41:15;1040.2;;;23.3;24.9
76044;BME280;64740;34.694;33.088;2023-03-31T11:46:39;1040.2;;;23.3;25
76044;BME280;64740;34.694;33.088;2023-03-31T11:51:20;1040.1;;;23.3;25.5
76044;BME280;64740;34.694;33.088;2023-03-31T11:56:32;1040.1;;;23.4;25.2
76044;BME280;64740;34.694;33.088;2023-03-31T12:01:08;1040.2;;;23.4;25.4
76044;BME280;64740;34.694;33.088;2023-03-31T12:06:29;1040.1;;;23.3;26
76044;BME280;64740;34.694;33.088;2023-03-31T12:11:39;1040.1;;;23.5;25.3
76044;BME280;64740;34.694;33.088;2023-03-31T12:16:21;1040;;;23.5;25.3
76044;BME280;64740;34.694;33.088;2023-03-31T12:21:28;1039.9;;;23.5;25.3
76044;BME280;64740;34.694;33.088;2023-03-31T12:26:18;1039.9;;;23.4;25.2
76044;BME280;64740;34.694;33.088;2023-03-31T12:31:28;1040;;;23.4;25
76044;BME280;64740;34.694;33.088;2023-03-31T12:36:42;1039.8;;;23.4;25.2
76044;BME280;64740;34.694;33.088;2023-03-31T12:40:57;1039.8;;;23.3;25.9
76044;BME280;64740;34.694;33.088;2023-03-31T12:46:47;1039.9;;;23.4;25.7
76044;BME280;64740;34.694;33.088;2023-03-31T12:51:08;1039.7;;;23.4;25.6
76044;BME280;64740;34.694;33.088;2023-03-31T12:55:56;1039.6;;;23.4;25.5
76044;BME280;64740;34.694;33.088;2023-03-31T13:01:24;1039.5;;;23.4;26
76044;BME280;64740;34.694;33.088;2023-03-31T13:06:07;1039.5;;;23.4;26.2
76044;BME280;64740;34.694;33.088;2023-03-31T13:11:35;1039.6;;;23.3;26.3
76044;BME280;64740;34.694;33.088;2023-03-31T13:15:56;1039.5;;;23.3;25.7
76044;BME280;64740;34.694;33.088;2023-03-31T13:21:28;1039.5;;;23.1;25.9
76044;BME280;64740;34.694;33.088;2023-03-31T13:26:36;1039.4;;;23.2;25.7
76044;BME280;64740;34.694;33.088;2023-03-31T13:32:04;1039.3;;;23.5;25.8
76044;BME280;64740;34.694;33.088;2023-03-31T13:36:11;1039.3;;;23.6;25.8
76044;BME280;64740;34.694;33.088;2023-03-31T13:41:22;1039.3;;;23.7;25.9
76044;BME280;64740;34.694;33.088;2023-03-31T13:46:25;1039.3;;;23.6;25.9
76044;BME280;64740;34.694;33.088;2023-03-31T13:51:40;1039.3;;;23.6;26.5
76044;BME280;64740;34.694;33.088;2023-03-31T13:56:44;1039.3;;;23.6;26.3
76044;BME280;64740;34.694;33.088;2023-03-31T14:01:24;1039.3;;;23.6;26.4
76044;BME280;64740;34.694;33.088;2023-03-31T14:06:08;1039.3;;;23.6;26.6
76044;BME280;64740;34.694;33.088;2023-03-31T14:11:23;1039.4;;;23.6;26.9
76044;BME280;64740;34.694;33.088;2023-03-31T14:16:14;1039.5;;;23.3;27.4
76044;BME280;64740;34.694;33.088;2023-03-31T14:21:39;1039.5;;;23.4;26.9
76044;BME280;64740;34.694;33.088;2023-03-31T14:26:05;1039.6;;;23.4;27
76044;BME280;64740;34.694;33.088;2023-03-31T14:31:00;1039.6;;;23.4;27.2
76044;BME280;64740;34.694;33.088;2023-03-31T14:36:23;1039.6;;;23.3;27.1
76044;BME280;64740;34.694;33.088;2023-03-31T14:41:15;1039.7;;;23.1;27.2
76044;BME280;64740;34.694;33.088;2023-03-31T14:46:37;1039.7;;;22.9;27.4
76044;BME280;64740;34.694;33.088;2023-03-31T14:51:15;1039.7;;;22.8;27.9
76044;BME280;64740;34.694;33.088;2023-03-31T14:56:06;1039.8;;;22.6;28.6
76044;BME280;64740;34.694;33.088;2023-03-31T15:01:21;1039.9;;;22.3;28.6
76044;BME280;64740;34.694;33.088;2023-03-31T15:06:06;1039.9;;;22.3;28.8
76044;BME280;64740;34.694;33.088;2023-03-31T15:11:36;1039.9;;;22.3;29.1
76044;BME280;64740;34.694;33.088;2023-03-31T15:16:31;1040;;;22.2;29.2
76044;BME280;64740;34.694;33.088;2023-03-31T15:20:56;1040;;;21.9;29.6
76044;BME280;64740;34.694;33.088;2023-03-31T15:26:23;1040.1;;;21.5;29.7
76044;BME280;64740;34.694;33.088;2023-03-31T15:30:56;1040.1;;;21;30.3
76044;BME280;64740;34.694;33.088;2023-03-31T15:36:36;1040.1;;;20.6;31.3
76044;BME280;64740;34.694;33.088;2023-03-31T15:41:10;1040;;;20.2;31.9
76044;BME280;64740;34.694;33.088;2023-03-31T15:45:56;1040;;;19.8;32.2
76044;BME280;64740;34.694;33.088;2023-03-31T15:51:16;1040;;;19.6;32.8
76044;BME280;64740;34.694;33.088;2023-03-31T15:56:23;1040.1;;;19.4;33.4
76044;BME280;64740;34.694;33.088;2023-03-31T16:01:40;1040.2;;;19.3;33.5
76044;BME280;64740;34.694;33.088;2023-03-31T16:06:15;1040.2;;;19.1;33.5
76044;BME280;64740;34.694;33.088;2023-03-31T16:10:57;1040.2;;;18.9;33.6
76044;BME280;64740;34.694;33.088;2023-03-31T16:16:21;1040.2;;;18.7;33.7
76044;BME280;64740;34.694;33.088;2023-03-31T16:21:15;1040.3;;;18.6;33.8
76044;BME280;64740;34.694;33.088;2023-03-31T16:26:38;1040.4;;;18.5;33.8
76044;BME280;64740;34.694;33.088;2023-03-31T16:30:56;1040.4;;;18.4;33.9
76044;BME280;64740;34.694;33.088;2023-03-31T16:36:06;1040.4;;;18.4;33.8
76044;BME280;64740;34.694;33.088;2023-03-31T16:41:20;1040.5;;;18.3;33.8
76044;BME280;64740;34.694;33.088;2023-03-31T16:46:14;1040.5;;;18.3;33.9
76044;BME280;64740;34.694;33.088;2023-03-31T16:51:36;1040.6;;;18.2;34
76044;BME280;64740;34.694;33.088;2023-03-31T16:56:14;1040.7;;;18.1;34.1
76044;BME280;64740;34.694;33.088;2023-03-31T17:00:56;1040.7;;;18.1;34.3
76044;BME280;64740;34.694;33.088;2023-03-31T17:06:20;1040.8;;;18.1;34.3
76044;BME280;64740;34.694;33.088;2023-03-31T17:11:14;1040.8;;;18;34.4
76044;BME280;64740;34.694;33.088;2023-03-31T17:16:36;1040.8;;;18;34.5
76044;BME280;64740;34.694;33.088;2023-03-31T17:21:14;1040.8;;;17.9;34.6
76044;BME280;64740;34.694;33.088;2023-03-31T17:26:07;1040.9;;;17.9;34.6
76044;BME280;64740;34.694;33.088;2023-03-31T17:31:22;1040.9;;;17.9;34.6
76044;BME280;64740;34.694;33.088;2023-03-31T17:36:28;1040.9;;;17.9;34.6
76044;BME280;64740;34.694;33.088;2023-03-31T17:41:36;1041;;;17.9;34.6
76044;BME280;64740;34.694;33.088;2023-03-31T17:46:14;1041.1;;;18;34.6
76044;BME280;64740;34.694;33.088;2023-03-31T17:51:07;1041.1;;;18;34.7
76044;BME280;64740;34.694;33.088;2023-03-31T17:56:20;1041.1;;;18.1;34.1
76044;BME280;64740;34.694;33.088;2023-03-31T18:00:56;1041.2;;;18.1;34
76044;BME280;64740;34.694;33.088;2023-03-31T18:06:38;1041.3;;;18.1;33.9
76044;BME280;64740;34.694;33.088;2023-03-31T18:10:56;1041.4;;;18.1;33.6
76044;BME280;64740;34.694;33.088;2023-03-31T18:16:08;1041.4;;;18.1;33.4
76044;BME280;64740;34.694;33.088;2023-03-31T18:21:20;1041.5;;;18.2;33.6
76044;BME280;64740;34.694;33.088;2023-03-31T18:26:07;1041.5;;;18.2;33.5
76044;BME280;64740;34.694;33.088;2023-03-31T18:31:38;1041.5;;;18.1;33.5
76044;BME280;64740;34.694;33.088;2023-03-31T18:36:15;1041.6;;;18.1;33.5
76044;BME280;64740;34.694;33.088;2023-03-31T18:41:11;1041.7;;;18.1;33.6
76044;BME280;64740;34.694;33.088;2023-03-31T18:46:20;1041.7;;;18.1;33.5
76044;BME280;64740;34.694;33.088;2023-03-31T18:51:36;1041.7;;;18;33.6
76044;BME280;64740;34.694;33.088;2023-03-31T18:56:36;1041.7;;;18;33.7
76044;BME280;64740;34.694;33.088;2023-03-31T19:00:56;1041.7;;;18;33.9
76044;BME280;64740;34.694;33.088;2023-03-31T19:06:07;1041.8;;;17.9;34.1
76044;BME280;64740;34.694;33.088;2023-03-31T19:11:20;1041.7;;;17.9;34.4
76044;BME280;64740;34.694;33.088;2023-03-31T19:16:21;1041.8;;;17.9;34.8
76044;BME280;64740;34.694;33.088;2023-03-31T19:21:36;1041.8;;;17.8;35
76044;BME280;64740;34.694;33.088;2023-03-31T19:26:04;1041.8;;;17.8;35.3
76044;BME280;64740;34.694;33.088;2023-03-31T19:30:56;1041.8;;;17.7;35.5
76044;BME280;64740;34.694;33.088;2023-03-31T19:36:20;1041.8;;;17.7;35.4
76044;BME280;64740;34.694;33.088;2023-03-31T19:41:06;1041.8;;;17.6;35.2
76044;BME280;64740;34.694;33.088;2023-03-31T19:46:36;1041.8;;;17.6;35.2
76044;BME280;64740;34.694;33.088;2023-03-31T19:51:14;1041.9;;;17.6;35.3
76044;BME280;64740;34.694;33.088;2023-03-31T19:55:56;1041.9;;;17.5;35.5
76044;BME280;64740;34.694;33.088;2023-03-31T20:01:21;1041.9;;;17.5;35.4
76044;BME280;64740;34.694;33.088;2023-03-31T20:06:02;1042;;;17.5;35.4
76044;BME280;64740;34.694;33.088;2023-03-31T20:11:38;1041.9;;;17.5;35.6
76044;BME280;64740;34.694;33.088;2023-03-31T20:15:59;1041.9;;;17.4;35.8
76044;BME280;64740;34.694;33.088;2023-03-31T20:21:02;1042;;;17.4;36.1
76044;BME280;64740;34.694;33.088;2023-03-31T20:26:23;1042;;;17.4;36.3
76044;BME280;64740;34.694;33.088;2023-03-31T20:31:23;1041.9;;;17.3;36
76044;BME280;64740;34.694;33.088;2023-03-31T20:36:39;1041.9;;;17.1;36.2
76044;BME280;64740;34.694;33.088;2023-03-31T20:41:16;1041.9;;;17;36.3
76044;BME280;64740;34.694;33.088;2023-03-31T20:46:22;1041.9;;;16.9;36.4
76044;BME280;64740;34.694;33.088;2023-03-31T20:51:23;1041.9;;;16.9;36.7
76044;BME280;64740;34.694;33.088;2023-03-31T20:56:33;1041.9;;;16.8;36.6
76044;BME280;64740;34.694;33.088;2023-03-31T21:01:36;1041.9;;;16.7;36.6
76044;BME280;64740;34.694;33.088;2023-03-31T21:06:16;1041.8;;;16.7;36.7
76044;BME280;64740;34.694;33.088;2023-03-31T21:11:08;1041.8;;;16.6;36.5
76044;BME280;64740;34.694;33.088;2023-03-31T21:16:22;1041.9;;;16.6;36.4
76044;BME280;64740;34.694;33.088;2023-03-31T21:21:09;1041.9;;;16.6;36.3
76044;BME280;64740;34.694;33.088;2023-03-31T21:26:38;1041.8;;;16.5;36.4
76044;BME280;64740;34.694;33.088;2023-03-31T21:31:17;1041.7;;;16.5;36.6
76044;BME280;64740;34.694;33.088;2023-03-31T21:36:38;1041.7;;;16.5;36.7
76044;BME280;64740;34.694;33.088;2023-03-31T21:41:25;1041.7;;;16.6;36.6
76044;BME280;64740;34.694;33.088;2023-03-31T21:45:58;1041.8;;;16.6;36.7
76044;BME280;64740;34.694;33.088;2023-03-31T21:51:40;1041.8;;;16.5;36.7
76044;BME280;64740;34.694;33.088;2023-03-31T21:56:16;1041.7;;;16.5;36.6
76044;BME280;64740;34.694;33.088;2023-03-31T22:01:40;1041.7;;;16.5;36.5
76044;BME280;64740;34.694;33.088;2023-03-31T22:06:24;1041.7;;;16.4;36.4
76044;BME280;64740;34.694;33.088;2023-03-31T22:10:58;1041.6;;;16.4;36.7
76044;BME280;64740;34.694;33.088;2023-03-31T22:16:38;1041.6;;;16.3;36.8
76044;BME280;64740;34.694;33.088;2023-03-31T22:20:58;1041.7;;;16.2;36.6
76044;BME280;64740;34.694;33.088;2023-03-31T22:26:38;1041.6;;;16.1;37
76044;BME280;64740;34.694;33.088;2023-03-31T22:31:22;1041.6;;;16;36.8
76044;BME280;64740;34.694;33.088;2023-03-31T22:36:08;1041.7;;;16;36.9
76044;BME280;64740;34.694;33.088;2023-03-31T22:41:38;1041.6;;;16.1;37
76044;BME280;64740;34.694;33.088;2023-03-31T22:46:16;1041.6;;;16.1;36.8
76044;BME280;64740;34.694;33.088;2023-03-31T22:51:38;1041.5;;;16.1;36.5
76044;BME280;64740;34.694;33.088;2023-03-31T22:56:23;1041.5;;;16.1;36.5
76044;BME280;64740;34.694;33.088;2023-03-31T23:00:59;1041.4;;;16;36.6
76044;BME280;64740;34.694;33.088;2023-03-31T23:06:38;1041.4;;;15.9;36.6
76044;BME280;64740;34.694;33.088;2023-03-31T23:11:07;1041.4;;;15.8;36.6
76044;BME280;64740;34.694;33.088;2023-03-31T23:16:38;1041.4;;;15.8;36.6
76044;BME280;64740;34.694;33.088;2023-03-31T23:21:23;1041.4;;;15.8;36.5
76044;BME280;64740;34.694;33.088;2023-03-31T23:25:59;1041.4;;;15.7;36.5
76044;BME280;64740;34.694;33.088;2023-03-31T23:31:40;1041.4;;;15.7;36.6
76044;BME280;64740;34.694;33.088;2023-03-31T23:36:08;1041.3;;;15.7;36.3
76044;BME280;64740;34.694;33.088;2023-03-31T23:41:38;1041.3;;;15.6;36.3
76044;BME280;64740;34.694;33.088;2023-03-31T23:46:22;1041.3;;;15.5;36.1
76044;BME280;64740;34.694;33.088;2023-03-31T23:51:07;1041.2;;;15.5;36.1
76044;BME280;64740;34.694;33.088;2023-03-31T23:56:38;1041.2;;;15.4;36.2
